• Join FlightAware (Why Join?)
  • Login
  • US Flag 
12:03AM EST


 

Airport Tracker/Info


-or-


 

Live Flight TrackerFlight Track Log ✈ N27XP ✈ 20-Jun-2014 ✈ KSOP - KCLT

Flight Track Log - Related Links

Times and Time Zones

All times are in EDT time to prevent confusion due to time zone crossing. See the N27XP flight status page for this flight to view local times or setup timezone preferences in your user account.

Time Position Orientation Groundspeed Altitude Reporting Facility
EDT Latitude Longitude Course Direction KTS MPH feet Rate Location/Type
01:58PM 35.2142 -79.5406 248° West  Level FlightAware Approximate
01:59PM 35.2368 -79.4583 270° West  Level Estimated
01:59PM 35.2153 -79.8619 264° West 263 303 6,000  Level Atlanta Center
02:00PM 35.2291 -79.5269 262° West  Level FlightAware Approximate
02:00PM 35.2064 -79.9717 264° West 268 308 6,000  Level Atlanta Center
02:01PM 35.2214 -79.5955 262° West  Level FlightAware Approximate
02:01PM 35.2067 -80.0403 270° West 261 300 6,000  Level Atlanta Center
02:02PM 35.2213 -79.6648 270° West  Level Estimated
02:02PM 35.2053 -80.1242 269° West 262 302 6,000  Level Atlanta Center
02:03PM 35.2213 -79.7340 270° West  Level Estimated
02:03PM 35.1981 -80.2264 265° West 258 297 5,900  Level Atlanta Center
02:04PM 35.2155 -79.8029 264° West  Level FlightAware Approximate
02:04PM 35.1756 -80.3136 253° West 274 315 4,100  Level Atlanta Center
02:05PM 35.1547 -80.3808 249° West 256 295 4,000 -60 Descending Atlanta Center
02:06PM 35.1297 -80.4581 248° West 243 280 4,000  Level Atlanta Center
02:07PM 35.1072 -80.5403 252° West 252 290 4,000  Level Atlanta Center
02:08PM 35.0844 -80.6225 251° West 257 296 4,000  Level Atlanta Center
02:09PM 35.0683 -80.7194 259° West 259 298 4,000  Level Atlanta Center
02:10PM 35.0847 -80.7900 286° West 256 295 4,000 -660 Level Atlanta Center
02:11PM 35.1183 -80.8697 297° West 239 275 2,800 -1,140 Descending Atlanta Center
02:12PM 35.1528 -80.9194 310° West 171 197 1,800 -900 Descending Atlanta Center
02:13PM 35.1886 -80.9358 340° North 125 144 1,000 -840 Descending Atlanta Center